createdAt,value
2023-04-23T00:02:02.830Z,92.10
2023-04-23T00:04:34.385Z,92.10
2023-04-23T00:07:03.412Z,92.10
2023-04-23T00:09:33.526Z,92.00
2023-04-23T00:12:01.808Z,92.00
2023-04-23T00:14:28.939Z,91.90
2023-04-23T00:16:56.006Z,91.80
2023-04-23T00:19:22.656Z,91.80
2023-04-23T00:21:49.400Z,91.70
2023-04-23T00:24:16.101Z,91.70
2023-04-23T00:26:42.755Z,91.70
2023-04-23T00:29:09.863Z,91.70
2023-04-23T00:31:36.570Z,91.60
2023-04-23T00:34:03.568Z,91.50
2023-04-23T00:36:30.818Z,91.50
2023-04-23T00:38:57.630Z,91.50
2023-04-23T00:41:25.415Z,91.50
2023-04-23T00:43:53.224Z,91.50
2023-04-23T00:46:20.731Z,91.50
2023-04-23T00:48:48.084Z,91.50
2023-04-23T00:51:16.702Z,91.50
2023-04-23T00:53:43.542Z,91.60
2023-04-23T00:56:11.064Z,91.60
2023-04-23T00:58:38.180Z,91.70
2023-04-23T01:01:05.742Z,91.80
2023-04-23T01:03:36.302Z,92.10
2023-04-23T01:06:04.207Z,91.80
2023-04-23T01:08:32.464Z,92.00
2023-04-23T01:10:59.906Z,91.90
2023-04-23T01:13:29.509Z,91.90
2023-04-23T01:15:56.886Z,91.90
2023-04-23T01:18:24.636Z,92.00
2023-04-23T01:20:51.704Z,92.00
2023-04-23T01:23:18.516Z,92.00
2023-04-23T01:25:45.426Z,92.00
2023-04-23T01:28:12.748Z,92.00
2023-04-23T01:30:41.748Z,92.00
2023-04-23T01:33:09.068Z,92.00
2023-04-23T01:35:36.590Z,92.00
2023-04-23T01:38:04.878Z,92.10
2023-04-23T01:40:31.655Z,92.10
2023-04-23T01:42:58.994Z,92.10
2023-04-23T01:45:25.892Z,92.10
2023-04-23T01:47:53.067Z,92.10
2023-04-23T01:50:23.119Z,92.20
2023-04-23T01:52:49.915Z,92.20
2023-04-23T01:55:19.072Z,92.20
2023-04-23T01:57:47.442Z,92.30
2023-04-23T02:00:15.286Z,92.40
2023-04-23T02:02:43.424Z,92.40
2023-04-23T02:05:12.992Z,92.40
2023-04-23T02:07:40.481Z,92.50
2023-04-23T02:10:08.206Z,92.40
2023-04-23T02:12:34.945Z,92.50
2023-04-23T02:15:01.720Z,92.40
2023-04-23T02:17:29.112Z,92.40
2023-04-23T02:19:55.982Z,92.50
2023-04-23T02:22:25.217Z,92.50
2023-04-23T02:24:52.895Z,92.50
2023-04-23T02:27:20.418Z,92.50
2023-04-23T02:29:48.245Z,92.50
2023-04-23T02:32:15.587Z,92.50
2023-04-23T02:34:42.658Z,92.60
2023-04-23T02:37:09.672Z,92.60
2023-04-23T02:39:38.806Z,92.70
2023-04-23T02:42:05.619Z,92.70
2023-04-23T02:44:32.312Z,92.70
2023-04-23T02:46:59.156Z,92.60
2023-04-23T02:49:26.719Z,92.60
2023-04-23T02:51:53.431Z,92.60
2023-04-23T02:54:20.258Z,92.50
2023-04-23T02:56:46.999Z,92.50
2023-04-23T02:59:13.829Z,92.50
2023-04-23T03:01:41.272Z,92.40
2023-04-23T03:04:09.870Z,92.40
2023-04-23T03:06:37.329Z,92.40
2023-04-23T03:09:04.775Z,92.30
2023-04-23T03:11:32.143Z,92.30
2023-04-23T03:13:59.126Z,92.20
2023-04-23T03:16:28.436Z,92.20
2023-04-23T03:18:55.720Z,92.30
2023-04-23T03:21:22.671Z,92.30
2023-04-23T03:23:49.968Z,92.30
2023-04-23T03:26:17.272Z,92.40
2023-04-23T03:28:43.922Z,92.40
2023-04-23T03:31:10.827Z,92.50
2023-04-23T03:33:37.562Z,92.50
2023-04-23T03:36:05.552Z,92.60
2023-04-23T03:38:33.009Z,92.60
2023-04-23T03:41:00.875Z,92.70
2023-04-23T03:43:27.845Z,92.80
2023-04-23T03:46:03.348Z,92.80
2023-04-23T03:48:33.551Z,92.80
2023-04-23T03:51:04.257Z,92.90
2023-04-23T03:53:36.550Z,92.90
2023-04-23T03:56:21.899Z,92.90
2023-04-23T03:59:08.044Z,92.90
2023-04-23T04:01:36.207Z,92.90
2023-04-23T04:04:03.424Z,92.90
2023-04-23T04:06:33.356Z,92.90
2023-04-23T04:09:00.136Z,93.00
2023-04-23T04:11:27.962Z,93.00
2023-04-23T04:13:54.683Z,93.00
2023-04-23T04:16:21.442Z,93.00
2023-04-23T04:18:48.122Z,93.00
2023-04-23T04:21:15.936Z,93.10
2023-04-23T04:23:43.467Z,93.10
2023-04-23T04:26:10.804Z,93.30
2023-04-23T04:28:37.679Z,93.30
2023-04-23T04:31:05.481Z,93.40
2023-04-23T04:33:33.270Z,93.50
2023-04-23T04:36:00.533Z,93.60
2023-04-23T04:38:28.306Z,93.70
2023-04-23T04:40:58.802Z,93.70
2023-04-23T04:43:26.502Z,93.80
2023-04-23T04:45:53.671Z,93.90
2023-04-23T04:48:20.637Z,94.00
2023-04-23T04:50:47.737Z,94.00
2023-04-23T04:53:14.606Z,94.00
2023-04-23T04:55:41.497Z,94.00
2023-04-23T04:58:08.185Z,94.10
2023-04-23T05:00:34.966Z,94.20
2023-04-23T05:03:02.025Z,94.20
2023-04-23T05:05:28.784Z,94.30
2023-04-23T05:07:58.957Z,94.40
2023-04-23T05:10:26.390Z,94.40
2023-04-23T05:12:53.426Z,94.40
2023-04-23T05:15:20.362Z,94.50
2023-04-23T05:17:47.174Z,94.50
2023-04-23T05:20:14.243Z,94.60
2023-04-23T05:22:42.340Z,94.70
2023-04-23T05:25:11.689Z,94.80
2023-04-23T05:27:38.980Z,95.00
2023-04-23T05:30:09.457Z,95.00
2023-04-23T05:32:36.928Z,95.20
2023-04-23T05:35:04.520Z,95.20
2023-04-23T05:37:31.399Z,95.20
2023-04-23T05:39:58.242Z,95.20
2023-04-23T05:42:25.103Z,95.20
2023-04-23T05:44:51.965Z,95.30
2023-04-23T05:47:18.688Z,95.40
2023-04-23T05:49:45.601Z,95.40
2023-04-23T05:52:12.396Z,95.50
2023-04-23T05:54:39.543Z,95.60
2023-04-23T05:57:06.317Z,95.60
2023-04-23T05:59:34.354Z,95.70
2023-04-23T06:02:01.930Z,95.80
2023-04-23T06:04:28.814Z,95.80
2023-04-23T06:06:55.689Z,95.80
2023-04-23T06:09:22.371Z,95.90
2023-04-23T06:11:50.633Z,95.90
2023-04-23T06:14:17.368Z,95.90
2023-04-23T06:16:44.063Z,95.80
2023-04-23T06:19:11.922Z,95.80
2023-04-23T06:21:39.057Z,95.90
2023-04-23T06:24:07.305Z,95.90
2023-04-23T06:26:34.167Z,95.90
2023-04-23T06:29:07.904Z,95.90
2023-04-23T06:31:56.646Z,96.00
2023-04-23T06:34:23.650Z,96.20
2023-04-23T06:36:51.619Z,96.40
2023-04-23T06:39:18.313Z,96.60
2023-04-23T06:41:45.099Z,96.80
2023-04-23T06:44:20.936Z,97.10
2023-04-23T06:46:51.572Z,97.30
2023-04-23T06:49:18.624Z,97.40
2023-04-23T06:51:45.642Z,97.50
2023-04-23T06:54:12.299Z,97.20
2023-04-23T06:56:38.913Z,96.50
2023-04-23T06:59:06.933Z,95.90
2023-04-23T07:01:36.087Z,95.30
2023-04-23T07:04:02.760Z,94.90
2023-04-23T07:06:29.442Z,94.10
2023-04-23T07:08:56.118Z,93.70
2023-04-23T07:11:23.664Z,93.20
2023-04-23T07:13:50.480Z,93.00
2023-04-23T07:16:18.076Z,92.90
2023-04-23T07:18:45.891Z,92.90
2023-04-23T07:21:12.576Z,92.90
2023-04-23T07:23:39.241Z,92.90
2023-04-23T07:26:06.066Z,92.50
2023-04-23T07:28:32.826Z,92.00
2023-04-23T07:30:59.597Z,91.60
2023-04-23T07:33:26.433Z,91.30
2023-04-23T07:35:53.158Z,91.10
2023-04-23T07:38:19.834Z,91.00
2023-04-23T07:40:47.310Z,90.90
2023-04-23T07:43:14.005Z,90.50
2023-04-23T07:45:40.686Z,90.80
2023-04-23T07:48:07.440Z,90.80
2023-04-23T07:50:34.107Z,91.20
2023-04-23T07:53:00.922Z,90.90
2023-04-23T07:55:27.556Z,91.00
2023-04-23T07:57:54.180Z,91.20
2023-04-23T08:00:20.930Z,91.70
2023-04-23T08:02:47.720Z,92.50
2023-04-23T08:05:14.690Z,93.10
2023-04-23T08:07:41.438Z,93.50
2023-04-23T08:10:08.613Z,93.60
2023-04-23T08:12:35.906Z,93.60
2023-04-23T08:15:03.558Z,93.50
2023-04-23T08:17:37.442Z,93.20
2023-04-23T08:20:08.533Z,92.80
2023-04-23T08:22:35.270Z,91.30
2023-04-23T08:25:02.120Z,90.40
2023-04-23T08:27:28.868Z,88.30
2023-04-23T08:29:55.895Z,87.20
2023-04-23T08:32:22.731Z,87.40
2023-04-23T08:34:49.607Z,87.00
2023-04-23T08:37:27.283Z,85.80
2023-04-23T08:39:57.296Z,84.70
2023-04-23T08:42:35.487Z,85.00
2023-04-23T08:45:04.196Z,80.30
2023-04-23T08:47:32.471Z,80.00
2023-04-23T08:49:59.749Z,78.70
2023-04-23T08:52:29.261Z,76.30
2023-04-23T08:55:02.161Z,74.70
2023-04-23T08:57:30.660Z,71.70
2023-04-23T08:59:58.174Z,72.70
2023-04-23T09:02:25.500Z,71.30
2023-04-23T09:04:56.144Z,70.10
2023-04-23T09:07:23.445Z,69.10
2023-04-23T09:09:50.209Z,68.20
2023-04-23T09:12:17.194Z,67.40
2023-04-23T09:14:44.909Z,67.00
2023-04-23T09:17:11.964Z,66.80
2023-04-23T09:19:40.023Z,66.40
2023-04-23T09:22:07.707Z,65.50
2023-04-23T09:24:34.725Z,64.80
2023-04-23T09:27:01.400Z,64.20
2023-04-23T09:29:28.487Z,64.30
2023-04-23T09:32:07.496Z,64.00
2023-04-23T09:34:36.820Z,63.10
2023-04-23T09:37:05.440Z,62.60
2023-04-23T09:39:34.506Z,62.90
2023-04-23T09:42:05.772Z,61.90
2023-04-23T09:44:34.003Z,60.50
2023-04-23T09:47:12.008Z,60.90
2023-04-23T09:49:49.160Z,60.40
2023-04-23T09:52:16.702Z,59.50
2023-04-23T09:54:44.310Z,60.30
2023-04-23T09:57:11.672Z,60.30
2023-04-23T09:59:47.717Z,60.10
2023-04-23T10:02:15.599Z,59.60
2023-04-23T10:04:42.764Z,59.20
2023-04-23T10:09:43.523Z,59.50
2023-04-23T10:12:24.296Z,59.40
2023-04-23T10:14:59.712Z,59.30
2023-04-23T10:17:26.881Z,59.60
2023-04-23T10:19:55.571Z,59.60
2023-04-23T10:22:24.800Z,58.80
2023-04-23T10:25:03.760Z,58.10
2023-04-23T10:27:48.348Z,57.20
2023-04-23T10:30:18.862Z,56.80
2023-04-23T10:32:49.329Z,56.70
2023-04-23T10:35:16.419Z,56.50
2023-04-23T10:37:44.498Z,57.30
2023-04-23T10:40:14.138Z,56.50
2023-04-23T10:42:42.637Z,55.40
2023-04-23T10:47:47.382Z,54.60
2023-04-23T10:50:20.805Z,54.60
2023-04-23T10:52:51.441Z,53.80
2023-04-23T10:55:23.393Z,54.10
2023-04-23T10:58:07.299Z,53.90
2023-04-23T11:00:45.983Z,53.40
2023-04-23T11:03:39.608Z,53.40
2023-04-23T11:06:12.242Z,53.80
2023-04-23T11:08:53.554Z,55.20
2023-04-23T11:11:45.162Z,54.00
2023-04-23T11:14:15.597Z,54.50
2023-04-23T11:16:42.428Z,54.50
2023-04-23T11:19:15.944Z,54.30
2023-04-23T11:22:03.127Z,54.00
2023-04-23T11:24:34.290Z,53.50
2023-04-23T11:27:02.597Z,54.30
2023-04-23T11:29:29.368Z,54.20
2023-04-23T11:34:26.526Z,54.30
2023-04-23T11:36:57.207Z,54.50
2023-04-23T11:39:24.580Z,54.60
2023-04-23T11:41:52.379Z,54.40
2023-04-23T11:44:21.219Z,54.00
2023-04-23T11:46:49.492Z,53.90
2023-04-23T11:49:18.582Z,54.10
2023-04-23T11:51:46.516Z,53.70
2023-04-23T11:54:14.593Z,53.70
2023-04-23T11:56:41.769Z,54.00
2023-04-23T11:59:08.891Z,54.20
2023-04-23T12:01:46.259Z,54.20
2023-04-23T12:04:13.913Z,54.10
2023-04-23T12:06:42.835Z,54.50
2023-04-23T12:09:11.494Z,54.20
2023-04-23T12:11:38.788Z,54.00
2023-04-23T12:14:05.518Z,53.70
2023-04-23T12:16:40.188Z,53.20
2023-04-23T12:19:31.128Z,52.40
2023-04-23T12:21:59.970Z,52.00
2023-04-23T12:24:32.152Z,52.60
2023-04-23T12:27:02.737Z,52.40
2023-04-23T12:29:30.993Z,52.50
2023-04-23T12:32:00.729Z,52.60
2023-04-23T12:34:27.524Z,52.70
2023-04-23T12:36:56.198Z,52.90
2023-04-23T12:39:32.214Z,52.80
2023-04-23T12:42:08.088Z,53.00
2023-04-23T12:44:36.259Z,53.00
2023-04-23T12:47:05.789Z,53.50
2023-04-23T12:49:34.049Z,53.40
2023-04-23T12:52:02.924Z,53.60
2023-04-23T12:54:37.181Z,53.80
2023-04-23T12:57:05.829Z,54.00
2023-04-23T12:59:32.860Z,54.30
2023-04-23T13:02:03.681Z,54.50
2023-04-23T13:04:32.395Z,54.50
2023-04-23T13:06:59.160Z,54.80
2023-04-23T13:09:27.742Z,54.80
2023-04-23T13:11:54.819Z,54.90
2023-04-23T13:14:21.638Z,54.50
2023-04-23T13:16:48.888Z,54.30
2023-04-23T13:19:17.043Z,53.80
2023-04-23T13:21:44.805Z,54.20
2023-04-23T13:24:11.635Z,54.20
2023-04-23T13:26:38.352Z,54.00
2023-04-23T13:29:05.196Z,54.00
2023-04-23T13:31:31.958Z,53.70
2023-04-23T13:33:59.015Z,53.70
2023-04-23T13:36:25.936Z,53.80
2023-04-23T13:38:52.779Z,54.40
2023-04-23T13:41:19.466Z,54.70
2023-04-23T13:43:46.248Z,54.80
2023-04-23T13:46:14.129Z,55.00
2023-04-23T13:48:41.837Z,55.40
2023-04-23T13:51:21.457Z,56.00
2023-04-23T13:53:53.157Z,56.00
2023-04-23T13:56:19.926Z,56.10
2023-04-23T13:58:48.332Z,56.00
2023-04-23T14:01:15.729Z,55.80
2023-04-23T14:03:42.629Z,55.90
2023-04-23T14:06:09.388Z,55.90
2023-04-23T14:08:36.856Z,55.90
2023-04-23T14:11:04.510Z,55.70
2023-04-23T14:13:32.790Z,55.90
2023-04-23T14:16:01.957Z,56.00
2023-04-23T14:18:30.261Z,56.20
2023-04-23T14:20:57.105Z,56.30
2023-04-23T14:23:23.945Z,56.50
2023-04-23T14:25:58.914Z,56.70
2023-04-23T14:28:45.182Z,56.70
2023-04-23T14:31:12.133Z,56.50
2023-04-23T14:33:38.783Z,56.60
2023-04-23T14:36:05.781Z,57.00
2023-04-23T14:38:32.486Z,56.40
2023-04-23T14:40:59.123Z,56.40
2023-04-23T14:43:25.788Z,56.20
2023-04-23T14:45:52.612Z,56.20
2023-04-23T14:48:19.285Z,56.10
2023-04-23T14:50:46.363Z,56.00
2023-04-23T14:53:13.028Z,56.10
2023-04-23T14:55:43.321Z,56.20
2023-04-23T14:58:10.022Z,56.20
2023-04-23T15:00:36.757Z,56.20
2023-04-23T15:03:10.018Z,56.00
2023-04-23T15:05:37.788Z,55.90
2023-04-23T15:08:04.674Z,55.80
2023-04-23T15:10:31.617Z,56.00
2023-04-23T15:13:02.224Z,56.20
2023-04-23T15:15:55.262Z,56.40
2023-04-23T15:18:22.015Z,56.30
2023-04-23T15:20:48.652Z,56.40
2023-04-23T15:23:15.652Z,56.40
2023-04-23T15:25:42.359Z,56.40
2023-04-23T15:28:09.061Z,56.50
2023-04-23T15:30:35.805Z,56.60
2023-04-23T15:33:02.509Z,56.60
2023-04-23T15:35:29.409Z,56.70
2023-04-23T15:37:56.998Z,56.70
2023-04-23T15:40:23.784Z,56.60
2023-04-23T15:42:50.762Z,56.70
2023-04-23T15:45:18.011Z,56.80
2023-04-23T15:47:44.677Z,56.90
2023-04-23T15:50:11.655Z,57.10
2023-04-23T15:52:38.948Z,56.90
2023-04-23T15:55:06.514Z,56.90
2023-04-23T15:57:33.298Z,56.90
2023-04-23T16:00:00.024Z,57.10
2023-04-23T16:02:27.259Z,57.20
2023-04-23T16:04:54.071Z,57.30
2023-04-23T16:07:20.751Z,57.30
2023-04-23T16:09:47.567Z,57.40
2023-04-23T16:12:14.254Z,57.50
2023-04-23T16:14:42.584Z,57.60
2023-04-23T16:17:09.467Z,57.50
2023-04-23T16:19:36.301Z,57.40
2023-04-23T16:22:03.051Z,57.50
2023-04-23T16:24:29.888Z,57.50
2023-04-23T16:26:56.795Z,57.60
2023-04-23T16:29:23.786Z,57.70
2023-04-23T16:31:50.913Z,57.80
2023-04-23T16:34:17.669Z,57.80
2023-04-23T16:36:44.416Z,57.80
2023-04-23T16:39:11.431Z,57.60
2023-04-23T16:41:38.399Z,57.60
2023-04-23T16:44:05.289Z,57.80
2023-04-23T16:46:32.307Z,58.00
2023-04-23T16:48:59.365Z,58.10
2023-04-23T16:51:26.873Z,58.40
2023-04-23T16:53:53.902Z,58.70
2023-04-23T16:56:21.359Z,59.10
2023-04-23T16:58:48.278Z,59.00
2023-04-23T17:01:16.540Z,59.00
2023-04-23T17:03:44.212Z,59.30
2023-04-23T17:06:31.285Z,59.60
2023-04-23T17:08:59.999Z,60.60
2023-04-23T17:11:30.763Z,59.90
2023-04-23T17:13:58.062Z,60.30
2023-04-23T17:16:28.000Z,60.20
2023-04-23T17:18:55.519Z,60.60
2023-04-23T17:21:22.861Z,61.20
2023-04-23T17:23:49.758Z,61.50
2023-04-23T17:26:16.553Z,61.80
2023-04-23T17:28:43.278Z,62.00
2023-04-23T17:31:10.147Z,62.30
2023-04-23T17:33:36.947Z,62.50
2023-04-23T17:36:03.955Z,62.90
2023-04-23T17:38:30.685Z,63.20
2023-04-23T17:40:58.621Z,63.50
2023-04-23T17:43:25.753Z,63.60
2023-04-23T17:45:52.464Z,63.90
2023-04-23T17:48:21.452Z,63.90
2023-04-23T17:50:49.508Z,64.10
2023-04-23T17:53:16.297Z,64.20
2023-04-23T17:55:42.970Z,64.60
2023-04-23T17:58:09.629Z,64.80
2023-04-23T18:00:41.684Z,65.00
2023-04-23T18:03:09.765Z,65.30
2023-04-23T18:05:36.654Z,65.40
2023-04-23T18:08:04.397Z,65.60
2023-04-23T18:10:31.253Z,65.70
2023-04-23T18:13:00.870Z,65.70
2023-04-23T18:15:28.996Z,66.10
2023-04-23T18:17:55.892Z,66.30
2023-04-23T18:20:24.878Z,66.60
2023-04-23T18:22:54.170Z,66.70
2023-04-23T18:25:21.254Z,67.10
2023-04-23T18:27:48.614Z,67.20
2023-04-23T18:30:15.540Z,67.50
2023-04-23T18:32:47.985Z,67.80
2023-04-23T18:35:14.789Z,68.30
2023-04-23T18:37:41.413Z,68.50
2023-04-23T18:40:08.842Z,68.60
2023-04-23T18:42:35.564Z,68.80
2023-04-23T18:45:04.117Z,69.00
2023-04-23T18:47:44.003Z,69.10
2023-04-23T18:50:37.838Z,69.90
2023-04-23T18:53:04.924Z,71.00
2023-04-23T18:55:31.671Z,69.60
2023-04-23T18:57:58.861Z,69.50
2023-04-23T19:00:25.743Z,69.70
2023-04-23T19:02:52.589Z,69.90
2023-04-23T19:05:19.846Z,70.40
2023-04-23T19:07:48.239Z,70.70
2023-04-23T19:10:16.553Z,71.00
2023-04-23T19:12:43.970Z,71.30
2023-04-23T19:15:11.355Z,72.10
2023-04-23T19:17:38.505Z,72.10
2023-04-23T19:20:09.221Z,72.50
2023-04-23T19:22:35.888Z,73.00
2023-04-23T19:25:02.666Z,73.30
2023-04-23T19:27:29.406Z,73.70
2023-04-23T19:29:56.604Z,74.40
2023-04-23T19:32:23.364Z,74.60
2023-04-23T19:34:50.262Z,74.80
2023-04-23T19:37:16.951Z,75.30
2023-04-23T19:39:43.893Z,75.80
2023-04-23T19:42:11.286Z,76.20
2023-04-23T19:44:37.938Z,76.60
2023-04-23T19:47:05.302Z,76.70
2023-04-23T19:49:32.085Z,77.20
2023-04-23T19:51:59.292Z,77.90
2023-04-23T19:54:26.254Z,78.50
2023-04-23T19:56:52.943Z,78.90
2023-04-23T19:59:20.951Z,79.40
2023-04-23T20:01:48.275Z,79.90
2023-04-23T20:04:15.808Z,80.50
2023-04-23T20:06:43.266Z,80.90
2023-04-23T20:09:17.903Z,81.70
2023-04-23T20:11:46.059Z,82.50
2023-04-23T20:14:13.030Z,83.30
2023-04-23T20:16:40.759Z,83.60
2023-04-23T20:19:11.257Z,84.60
2023-04-23T20:21:39.164Z,85.50
2023-04-23T20:24:07.568Z,86.00
2023-04-23T20:26:37.242Z,86.90
2023-04-23T20:29:04.794Z,88.00
2023-04-23T20:31:32.012Z,88.50
2023-04-23T20:33:59.254Z,89.50
2023-04-23T20:36:31.455Z,90.00
2023-04-23T20:38:59.465Z,90.40
2023-04-23T20:41:29.089Z,90.40
2023-04-23T20:43:57.011Z,90.60
2023-04-23T20:46:30.096Z,90.70
2023-04-23T20:48:58.192Z,91.00
2023-04-23T20:51:25.293Z,91.10
2023-04-23T20:53:52.034Z,91.40
2023-04-23T20:56:18.991Z,91.50
2023-04-23T20:58:46.031Z,91.70
2023-04-23T21:01:12.888Z,91.90
2023-04-23T21:03:40.629Z,92.10
2023-04-23T21:06:09.689Z,92.20
2023-04-23T21:08:41.257Z,92.50
2023-04-23T21:11:11.190Z,92.80
2023-04-23T21:13:38.187Z,92.80
2023-04-23T21:16:05.200Z,92.80
2023-04-23T21:18:32.075Z,92.90
2023-04-23T21:20:58.846Z,93.00
2023-04-23T21:23:25.680Z,93.10
2023-04-23T21:25:52.398Z,93.10
2023-04-23T21:28:19.558Z,93.20
2023-04-23T21:30:52.011Z,93.30
2023-04-23T21:33:20.553Z,93.40
2023-04-23T21:35:48.588Z,93.20
2023-04-23T21:38:15.438Z,93.30
2023-04-23T21:40:42.441Z,93.20
2023-04-23T21:43:09.603Z,93.20
2023-04-23T21:45:36.324Z,93.40
2023-04-23T21:48:03.142Z,93.20
2023-04-23T21:50:31.182Z,93.10
2023-04-23T21:52:59.355Z,93.20
2023-04-23T21:55:31.475Z,93.00
2023-04-23T21:58:09.888Z,92.90
2023-04-23T22:00:44.321Z,92.50
2023-04-23T22:03:11.835Z,92.30
2023-04-23T22:05:39.578Z,92.10
2023-04-23T22:08:07.436Z,92.10
2023-04-23T22:10:34.363Z,91.90
2023-04-23T22:13:01.238Z,91.90
2023-04-23T22:15:29.270Z,91.90
2023-04-23T22:17:58.968Z,91.70
2023-04-23T22:20:25.736Z,91.80
2023-04-23T22:22:52.666Z,91.50
2023-04-23T22:25:19.451Z,91.60
2023-04-23T22:27:46.169Z,91.70
2023-04-23T22:30:13.380Z,91.70
2023-04-23T22:32:40.854Z,91.70
2023-04-23T22:35:08.358Z,91.80
2023-04-23T22:37:35.400Z,91.80
2023-04-23T22:40:03.966Z,91.80
2023-04-23T22:42:31.069Z,91.80
2023-04-23T22:44:57.813Z,91.90
2023-04-23T22:47:25.069Z,91.90
2023-04-23T22:49:51.850Z,92.00
2023-04-23T22:52:18.979Z,92.10
2023-04-23T22:54:47.667Z,92.10
2023-04-23T22:57:14.398Z,92.20
2023-04-23T22:59:41.307Z,92.30
2023-04-23T23:02:08.138Z,92.30
2023-04-23T23:04:38.326Z,92.30
2023-04-23T23:07:08.949Z,92.40
2023-04-23T23:09:35.901Z,92.50
2023-04-23T23:12:03.807Z,92.40
2023-04-23T23:14:31.764Z,92.50
2023-04-23T23:16:58.917Z,92.50
2023-04-23T23:19:28.581Z,92.50
2023-04-23T23:21:55.641Z,92.40
2023-04-23T23:24:23.175Z,92.30
2023-04-23T23:26:50.691Z,92.40
2023-04-23T23:29:17.354Z,92.40
2023-04-23T23:31:44.260Z,92.40
2023-04-23T23:34:11.689Z,92.40
2023-04-23T23:36:38.492Z,92.40
2023-04-23T23:39:06.445Z,92.40
2023-04-23T23:41:33.201Z,92.40
2023-04-23T23:43:59.946Z,92.20
2023-04-23T23:46:26.658Z,92.20
2023-04-23T23:48:53.340Z,92.20
2023-04-23T23:51:20.208Z,92.20
2023-04-23T23:53:46.894Z,92.20
2023-04-23T23:56:13.576Z,92.10
2023-04-23T23:58:40.443Z,92.20
